Seabreeze 1 — V3RT5 — position and weather

sailwx.info

Track history (hours):
 
Tides and Currents Weather Stations Pressure Air Temp Water Temp Dewpoint Dewpoint Depression Visibility Wind Speed Wind Dir Waves Ship Positions

Seabreeze 1

Last reported at 2014-Sep-01 13:30 UTC. Time now 2014-Sep-01 13:55 UTC.
Position N 40°51' E 029°15'.

Length 139 m; draft 2.8 m.

Type: Cargo ship. MMSI: 312411000.

Date/timePositionNaut miles runAvg speedWind from/ knotsBaromVisibWave heightAir tempDewpointWater temp
2014-Sep-01 13:30N 40°51' E 029°15'0 0.1
2014-Sep-01 12:24N 40°51' E 029°15'0 0.1
2014-Sep-01 11:31N 40°51' E 029°15'0 0.1
2014-Sep-01 10:33N 40°51' E 029°15'1 1.1
2014-Sep-01 09:32N 40°49' E 029°14'0 0.0
2014-Sep-01 08:26N 40°49' E 029°14'0 0.1
2014-Sep-01 07:33N 40°49' E 029°14'0 0.1
2014-Sep-01 06:28N 40°49' E 029°14'0 0.0
2014-Sep-01 05:28N 40°49' E 029°14'0 0.0
2014-Sep-01 04:29N 40°49' E 029°14'0 0.0
2014-Sep-01 03:30N 40°49' E 029°14'0 0.0
2014-Sep-01 02:24N 40°49' E 029°14'0 0.0
2014-Sep-01 01:25N 40°49' E 029°14'0 0.0
2014-Sep-01 00:30N 40°49' E 029°14'0 0.0
2014-Aug-31 23:31N 40°49' E 029°14'0 0.0
2014-Aug-31 22:31N 40°49' E 029°14'0 0.0
2014-Aug-31 20:33N 40°49' E 029°14'0 0.0
2014-Aug-31 19:33N 40°49' E 029°14'0 0.0
2014-Aug-31 18:28N 40°49' E 029°14'0 0.0
2014-Aug-31 16:29N 40°49' E 029°14'0 0.0
2014-Aug-31 15:30N 40°49' E 029°14'0 0.0
2014-Aug-31 14:31N 40°49' E 029°14'0 0.0
2014-Aug-31 13:25N 40°49' E 029°14'0 0.0
2014-Aug-31 12:08N 40°49' E 029°14'0 0.0
2014-Aug-31 11:09N 40°49' E 029°14'0 0.0
2014-Aug-31 10:33N 40°49' E 029°14'0 0.0
2014-Aug-31 09:16N 40°49' E 029°14'0 0.0
2014-Aug-31 08:29N 40°49' E 029°14'0 0.0
2014-Aug-31 07:31N 40°49' E 029°14'0 0.0
2014-Aug-31 06:14N 40°49' E 029°14'0 0.0
2014-Aug-31 05:26N 40°49' E 029°14'0 0.0
2014-Aug-31 04:33N 40°49' E 029°14'0 0.0
2014-Aug-31 03:16N 40°49' E 029°14'0 0.0
2014-Aug-31 02:11N 40°49' E 029°14'0 0.0
2014-Aug-31 01:23N 40°49' E 029°14'0 0.0
2014-Aug-31 00:30N 40°49' E 029°14'0 0.0
2014-Aug-30 23:30N 40°49' E 029°14'0 0.0
2014-Aug-30 22:23N 40°49' E 029°14'0 0.0
2014-Aug-30 21:29N 40°49' E 029°14'0 0.0
2014-Aug-30 20:30N 40°49' E 029°14'0 0.0
2014-Aug-30 18:31N 40°49' E 029°14'5 5.1
2014-Aug-30 17:33N 40°46' E 029°18'10 8.6
2014-Aug-30 16:27N 40°46' E 029°31'1 0.1
2014-Aug-30 12:22N 40°46' E 029°31'0 0.0
2014-Aug-30 03:04N 40°46' E 029°31'0 0.0
2014-Aug-29 19:03N 40°46' E 029°31'0 0.0
2014-Aug-28 20:25N 40°46' E 029°31'1 0.8
2014-Aug-28 19:28N 40°45' E 029°31'6 6.2
2014-Aug-28 18:33N 40°44' E 029°24'6 6.5
2014-Aug-28 17:33N 40°45' E 029°16'6 6.0
2014-Aug-28 16:33N 40°48' E 029°08'6 6.2
2014-Aug-28 15:33N 40°50' E 029°01'7 6.1
2014-Aug-28 14:28N 40°56' E 028°57'  
Track history (hours):
 
Tides and Currents Weather Stations Pressure Air Temp Water Temp Dewpoint Dewpoint Depression Visibility Wind Speed Wind Dir Waves Ship Positions

Seabreeze 1

Last reported at 2014-Sep-01 13:30 UTC. Time now 2014-Sep-01 13:55 UTC.
Position N 40°51' E 029°15'.

Length 139 m; draft 2.8 m.

Type: Cargo ship. MMSI: 312411000.

Date/timePositionNaut miles runAvg speedWind from/ knotsBaromVisibWave heightAir tempDewpointWater temp
2014-Sep-01 13:30N 40°51' E 029°15'0 0.1
2014-Sep-01 12:24N 40°51' E 029°15'0 0.1
2014-Sep-01 11:31N 40°51' E 029°15'0 0.1
2014-Sep-01 10:33N 40°51' E 029°15'1 1.1
2014-Sep-01 09:32N 40°49' E 029°14'0 0.0
2014-Sep-01 08:26N 40°49' E 029°14'0 0.1
2014-Sep-01 07:33N 40°49' E 029°14'0 0.1
2014-Sep-01 06:28N 40°49' E 029°14'0 0.0
2014-Sep-01 05:28N 40°49' E 029°14'0 0.0
2014-Sep-01 04:29N 40°49' E 029°14'0 0.0
2014-Sep-01 03:30N 40°49' E 029°14'0 0.0
2014-Sep-01 02:24N 40°49' E 029°14'0 0.0
2014-Sep-01 01:25N 40°49' E 029°14'0 0.0
2014-Sep-01 00:30N 40°49' E 029°14'0 0.0
2014-Aug-31 23:31N 40°49' E 029°14'0 0.0
2014-Aug-31 22:31N 40°49' E 029°14'0 0.0
2014-Aug-31 20:33N 40°49' E 029°14'0 0.0
2014-Aug-31 19:33N 40°49' E 029°14'0 0.0
2014-Aug-31 18:28N 40°49' E 029°14'0 0.0
2014-Aug-31 16:29N 40°49' E 029°14'0 0.0
2014-Aug-31 15:30N 40°49' E 029°14'0 0.0
2014-Aug-31 14:31N 40°49' E 029°14'0 0.0
2014-Aug-31 13:25N 40°49' E 029°14'0 0.0
2014-Aug-31 12:08N 40°49' E 029°14'0 0.0
2014-Aug-31 11:09N 40°49' E 029°14'0 0.0
2014-Aug-31 10:33N 40°49' E 029°14'0 0.0
2014-Aug-31 09:16N 40°49' E 029°14'0 0.0
2014-Aug-31 08:29N 40°49' E 029°14'0 0.0
2014-Aug-31 07:31N 40°49' E 029°14'0 0.0
2014-Aug-31 06:14N 40°49' E 029°14'0 0.0
2014-Aug-31 05:26N 40°49' E 029°14'0 0.0
2014-Aug-31 04:33N 40°49' E 029°14'0 0.0
2014-Aug-31 03:16N 40°49' E 029°14'0 0.0
2014-Aug-31 02:11N 40°49' E 029°14'0 0.0
2014-Aug-31 01:23N 40°49' E 029°14'0 0.0
2014-Aug-31 00:30N 40°49' E 029°14'0 0.0
2014-Aug-30 23:30N 40°49' E 029°14'0 0.0
2014-Aug-30 22:23N 40°49' E 029°14'0 0.0
2014-Aug-30 21:29N 40°49' E 029°14'0 0.0
2014-Aug-30 20:30N 40°49' E 029°14'0 0.0
2014-Aug-30 18:31N 40°49' E 029°14'5 5.1
2014-Aug-30 17:33N 40°46' E 029°18'10 8.6
2014-Aug-30 16:27N 40°46' E 029°31'1 0.1
2014-Aug-30 12:22N 40°46' E 029°31'0 0.0
2014-Aug-30 03:04N 40°46' E 029°31'0 0.0
2014-Aug-29 19:03N 40°46' E 029°31'0 0.0
2014-Aug-28 20:25N 40°46' E 029°31'1 0.8
2014-Aug-28 19:28N 40°45' E 029°31'6 6.2
2014-Aug-28 18:33N 40°44' E 029°24'6 6.5
2014-Aug-28 17:33N 40°45' E 029°16'6 6.0
2014-Aug-28 16:33N 40°48' E 029°08'6 6.2
2014-Aug-28 15:33N 40°50' E 029°01'7 6.1
2014-Aug-28 14:28N 40°56' E 028°57'  

Dump ship's entire track history